Time,TemperatureF,DewpointF,PressureIn,WindDirection,WindDirectionDegrees,WindSpeedMPH,WindSpeedGustMPH,Humidity,HourlyPrecipIn,Conditions,Clouds,dailyrainin,SolarRadiationWatts/m^2,SoftwareType,DateUTC
2013-08-01 00:00:00,62.0,62.0,-100.00,SW,225,0.0,-999.0,100,-99.99,,,-99.99,0.000000,,2013-08-01 04:00:00,
2013-08-01 00:43:00,62.0,62.0,-100.00,SW,225,0.0,-999.0,100,-99.99,,,-99.99,0.000000,,2013-08-01 04:43:00,
2013-08-01 00:53:00,62.0,62.0,-100.00,SW,225,0.0,-999.0,100,-99.99,,,-99.99,0.000000,,2013-08-01 04:53:00,
2013-08-01 01:00:00,62.0,62.0,-100.00,SW,225,0.0,-999.0,101,-99.99,,,-99.99,0.000000,,2013-08-01 05:00:00,
2013-08-01 01:43:00,62.0,62.0,-100.00,SW,225,0.0,-999.0,101,-99.99,,,-99.99,0.000000,,2013-08-01 05:43:00,
2013-08-01 01:53:00,62.0,62.0,-100.00,SW,225,0.0,-999.0,101,-99.99,,,-99.99,0.000000,,2013-08-01 05:53:00,
2013-08-01 02:00:00,61.0,61.0,-100.00,SSW,202,0.0,-999.0,101,-99.99,,,-99.99,0.000000,,2013-08-01 06:00:00,
2013-08-01 02:33:00,61.0,61.0,-100.00,SSW,202,0.0,-999.0,101,-99.99,,,-99.99,0.000000,,2013-08-01 06:33:00,
2013-08-01 02:43:00,61.0,61.0,-100.00,SSW,202,0.0,-999.0,101,-99.99,,,-99.99,0.000000,,2013-08-01 06:43:00,
2013-08-01 02:53:00,61.0,61.0,-100.00,SSW,202,0.0,-999.0,101,-99.99,,,-99.99,0.000000,,2013-08-01 06:53:00,
2013-08-01 03:43:00,62.0,62.0,-100.00,SSW,202,0.0,-999.0,101,-99.99,,,-99.99,0.000000,,2013-08-01 07:43:00,
2013-08-01 03:55:00,62.0,62.0,-100.00,SSW,202,0.0,-999.0,101,-99.99,,,-99.99,0.000000,,2013-08-01 07:55:00,
2013-08-01 04:00:00,61.0,61.0,-100.00,SW,225,0.0,-999.0,101,-99.99,,,-99.99,0.000000,,2013-08-01 08:00:00,
2013-08-01 04:48:00,61.0,61.0,-100.00,SW,225,0.0,-999.0,101,-99.99,,,-99.99,0.000000,,2013-08-01 08:48:00,
2013-08-01 05:00:00,58.0,58.0,-100.00,SW,225,0.0,-999.0,101,-99.99,,,-99.99,0.000000,,2013-08-01 09:00:00,
2013-08-01 05:50:00,58.0,58.0,-100.00,SW,225,0.0,-999.0,101,-99.99,,,-99.99,0.000000,,2013-08-01 09:50:00,
2013-08-01 06:00:00,58.0,58.0,-100.00,SW,225,0.0,-999.0,101,-99.99,,,-99.99,0.000000,,2013-08-01 10:00:00,
2013-08-01 07:00:00,58.0,58.0,-100.00,West,270,0.0,-999.0,101,-99.99,,,-99.99,15.080000,,2013-08-01 11:00:00,
2013-08-01 08:54:00,60.0,60.0,-100.00,West,270,0.0,-999.0,101,-99.99,,,-99.99,119.480003,,2013-08-01 12:54:00,
2013-08-01 09:00:00,63.0,62.0,-100.00,West,270,2.0,-999.0,98,-99.99,,,-99.99,158.919998,,2013-08-01 13:00:00,
2013-08-01 10:00:00,64.0,62.0,-100.00,WNW,292,5.0,-999.0,93,-99.99,,,-99.99,230.839996,,2013-08-01 14:00:00,
2013-08-01 12:00:00,71.0,63.0,-100.00,West,270,5.0,-999.0,75,-99.99,,,-99.99,735.440002,,2013-08-01 16:00:00,
2013-08-01 12:53:00,71.0,63.0,-100.00,West,270,5.0,-999.0,75,-99.99,,,-99.99,735.440002,,2013-08-01 16:53:00,
2013-08-01 12:59:00,71.0,63.0,-100.00,West,270,5.0,-999.0,75,-99.99,,,-99.99,735.440002,,2013-08-01 16:59:00,
2013-08-01 13:00:00,73.0,61.0,-100.00,West,270,6.0,-999.0,64,-99.99,,,-99.99,597.400024,,2013-08-01 17:00:00,
2013-08-01 14:00:00,74.0,58.0,-100.00,WNW,292,7.0,-999.0,58,-99.99,,,-99.99,612.479980,,2013-08-01 18:00:00,
2013-08-01 14:49:00,74.0,58.0,-100.00,WNW,292,7.0,-999.0,58,-99.99,,,-99.99,612.479980,,2013-08-01 18:49:00,
2013-08-01 14:55:00,74.0,58.0,-100.00,WNW,292,7.0,-999.0,58,-99.99,,,-99.99,612.479980,,2013-08-01 18:55:00,
2013-08-01 15:00:00,76.0,55.0,-100.00,WNW,292,9.0,-999.0,49,-99.99,,,-99.99,767.919983,,2013-08-01 19:00:00,
2013-08-01 16:52:00,77.0,55.0,-100.00,WNW,292,7.0,-999.0,47,-99.99,,,-99.99,719.200012,,2013-08-01 20:52:00,
2013-08-01 16:58:00,77.0,55.0,-100.00,WNW,292,7.0,-999.0,47,-99.99,,,-99.99,719.200012,,2013-08-01 20:58:00,
2013-08-01 17:00:00,77.0,54.0,-100.00,WNW,292,8.0,-999.0,45,-99.99,,,-99.99,648.440002,,2013-08-01 21:00:00,
2013-08-01 17:43:00,77.0,54.0,-100.00,WNW,292,8.0,-999.0,45,-99.99,,,-99.99,648.440002,,2013-08-01 21:43:00,
2013-08-01 17:53:00,77.0,54.0,-100.00,WNW,292,8.0,-999.0,45,-99.99,,,-99.99,648.440002,,2013-08-01 21:53:00,
2013-08-01 18:00:00,77.0,54.0,-100.00,West,270,8.0,-999.0,45,-99.99,,,-99.99,503.440002,,2013-08-01 22:00:00,
2013-08-01 18:48:00,77.0,54.0,-100.00,West,270,8.0,-999.0,45,-99.99,,,-99.99,503.440002,,2013-08-01 22:48:00,
2013-08-01 19:00:00,76.0,54.0,-100.00,West,270,7.0,-999.0,46,-99.99,,,-99.99,323.640015,,2013-08-01 23:00:00,
2013-08-01 20:00:00,74.0,53.0,-100.00,West,270,4.0,-999.0,49,-99.99,,,-99.99,182.119995,,2013-08-02 00:00:00,
2013-08-01 20:52:00,74.0,53.0,-100.00,West,270,4.0,-999.0,49,-99.99,,,-99.99,182.119995,,2013-08-02 00:52:00,
2013-08-01 21:00:00,68.0,55.0,-100.00,West,270,0.0,-999.0,64,-99.99,,,-99.99,44.080002,,2013-08-02 01:00:00,
2013-08-01 21:49:00,68.0,55.0,-100.00,West,270,0.0,-999.0,64,-99.99,,,-99.99,44.080002,,2013-08-02 01:49:00,
2013-08-01 22:00:00,61.0,56.0,-100.00,West,270,0.0,-999.0,82,-99.99,,,-99.99,0.000000,,2013-08-02 02:00:00,
2013-08-01 23:00:00,59.0,55.0,-100.00,West,270,0.0,-999.0,85,-99.99,,,-99.99,0.000000,,2013-08-02 03:00:00,
2013-08-01 23:52:00,59.0,55.0,-100.00,West,270,0.0,-999.0,85,-99.99,,,-99.99,0.000000,,2013-08-02 03:52:00,